createdAt,value
2023-05-02T00:00:36.792Z,48.30
2023-05-02T00:03:05.543Z,48.17
2023-05-02T00:05:35.588Z,47.97
2023-05-02T00:08:03.369Z,48.10
2023-05-02T00:10:31.143Z,48.13
2023-05-02T00:12:58.934Z,48.20
2023-05-02T00:15:27.336Z,47.87
2023-05-02T00:17:55.263Z,48.07
2023-05-02T00:20:23.333Z,48.53
2023-05-02T00:22:52.477Z,48.10
2023-05-02T00:25:20.437Z,48.50
2023-05-02T00:27:50.812Z,48.27
2023-05-02T00:30:20.973Z,48.33
2023-05-02T00:32:48.894Z,47.70
2023-05-02T00:35:16.763Z,48.13
2023-05-02T00:37:44.539Z,47.70
2023-05-02T00:40:14.871Z,48.30
2023-05-02T00:42:42.651Z,48.20
2023-05-02T00:45:12.242Z,47.87
2023-05-02T00:47:40.098Z,48.20
2023-05-02T00:50:08.897Z,48.20
2023-05-02T00:52:38.021Z,48.00
2023-05-02T00:55:06.837Z,48.10
2023-05-02T00:57:36.005Z,47.80
2023-05-02T01:00:04.806Z,48.13
2023-05-02T01:02:39.129Z,48.10
2023-05-02T01:05:16.626Z,47.93
2023-05-02T01:07:55.315Z,48.10
2023-05-02T01:10:34.253Z,47.83
2023-05-02T01:13:08.650Z,48.00
2023-05-02T01:15:39.658Z,48.10
2023-05-02T01:18:09.990Z,48.20
2023-05-02T01:20:41.846Z,48.07
2023-05-02T01:23:18.749Z,48.00
2023-05-02T01:26:00.276Z,48.10
2023-05-02T01:28:45.076Z,48.30
2023-05-02T01:31:13.432Z,47.97
2023-05-02T01:33:42.664Z,48.17
2023-05-02T01:36:11.295Z,47.80
2023-05-02T01:38:40.847Z,47.83
2023-05-02T01:41:10.090Z,47.93
2023-05-02T01:43:39.244Z,47.87
2023-05-02T01:46:11.336Z,48.00
2023-05-02T01:48:41.426Z,47.60
2023-05-02T01:51:10.636Z,47.70
2023-05-02T01:53:40.782Z,48.00
2023-05-02T01:56:09.434Z,47.87
2023-05-02T01:58:37.652Z,47.90
2023-05-02T02:01:07.038Z,47.87
2023-05-02T02:03:36.212Z,47.97
2023-05-02T02:06:04.953Z,48.07
2023-05-02T02:08:32.880Z,47.87
2023-05-02T02:11:05.156Z,47.83
2023-05-02T02:13:40.018Z,48.07
2023-05-02T02:16:13.665Z,47.93
2023-05-02T02:18:46.003Z,47.60
2023-05-02T02:21:19.226Z,48.13
2023-05-02T02:23:49.444Z,48.20
2023-05-02T02:26:20.596Z,47.73
2023-05-02T02:28:48.837Z,47.83
2023-05-02T02:31:16.733Z,47.93
2023-05-02T02:33:45.989Z,47.90
2023-05-02T02:36:19.612Z,47.80
2023-05-02T02:38:51.691Z,47.87
2023-05-02T02:41:24.289Z,47.83
2023-05-02T02:44:01.166Z,48.10
2023-05-02T02:46:40.829Z,47.53
2023-05-02T02:49:24.869Z,47.70
2023-05-02T02:51:59.142Z,47.67
2023-05-02T02:54:33.906Z,47.50
2023-05-02T02:57:07.101Z,47.43
2023-05-02T02:59:41.101Z,47.47
2023-05-02T03:02:10.934Z,47.73
2023-05-02T03:04:42.921Z,47.83
2023-05-02T03:07:10.985Z,47.30
2023-05-02T03:09:42.944Z,47.77
2023-05-02T03:12:13.245Z,47.63
2023-05-02T03:14:42.139Z,47.73
2023-05-02T03:17:10.545Z,47.80
2023-05-02T03:19:39.941Z,47.93
2023-05-02T03:22:07.877Z,47.80
2023-05-02T03:24:37.390Z,47.80
2023-05-02T03:27:06.229Z,47.97
2023-05-02T03:29:40.077Z,47.67
2023-05-02T03:32:08.403Z,48.07
2023-05-02T03:34:38.237Z,47.90
2023-05-02T03:37:07.410Z,47.67
2023-05-02T03:39:35.328Z,47.63
2023-05-02T03:42:03.572Z,48.03
2023-05-02T03:44:31.318Z,47.80
2023-05-02T03:46:59.144Z,47.67
2023-05-02T03:49:27.985Z,47.60
2023-05-02T03:51:56.114Z,47.43
2023-05-02T03:54:33.157Z,47.67
2023-05-02T03:57:01.634Z,47.87
2023-05-02T03:59:34.000Z,47.63
2023-05-02T04:02:04.627Z,47.37
2023-05-02T04:04:41.417Z,48.00
2023-05-02T04:07:16.822Z,47.73
2023-05-02T04:09:46.087Z,47.97
2023-05-02T04:12:16.588Z,47.57
2023-05-02T04:14:48.098Z,48.03
2023-05-02T04:17:16.478Z,47.60
2023-05-02T04:19:49.713Z,47.83
2023-05-02T04:22:18.591Z,47.87
2023-05-02T04:24:53.812Z,47.93
2023-05-02T04:27:22.209Z,48.00
2023-05-02T04:29:50.774Z,47.97
2023-05-02T04:32:20.036Z,48.60
2023-05-02T04:34:49.078Z,48.00
2023-05-02T04:37:18.032Z,47.80
2023-05-02T04:39:47.153Z,47.60
2023-05-02T04:42:20.590Z,47.87
2023-05-02T04:45:01.114Z,47.87
2023-05-02T04:47:28.912Z,48.27
2023-05-02T04:49:56.842Z,47.93
2023-05-02T04:52:24.811Z,48.17
2023-05-02T04:54:52.625Z,47.70
2023-05-02T04:57:23.299Z,48.03
2023-05-02T04:59:55.457Z,47.63
2023-05-02T05:02:23.536Z,47.87
2023-05-02T05:04:51.567Z,47.87
2023-05-02T05:07:20.551Z,47.87
2023-05-02T05:09:52.031Z,47.93
2023-05-02T05:12:23.706Z,47.63
2023-05-02T05:14:51.702Z,47.53
2023-05-02T05:17:21.487Z,48.00
2023-05-02T05:19:49.738Z,47.87
2023-05-02T05:22:17.713Z,47.77
2023-05-02T05:24:52.677Z,47.90
2023-05-02T05:27:22.717Z,47.80
2023-05-02T05:29:50.496Z,47.77
2023-05-02T05:32:18.675Z,47.77
2023-05-02T05:34:47.074Z,47.70
2023-05-02T05:37:14.892Z,47.90
2023-05-02T05:39:43.040Z,47.60
2023-05-02T05:42:12.473Z,47.80
2023-05-02T05:44:42.666Z,47.50
2023-05-02T05:47:11.399Z,47.53
2023-05-02T05:49:39.286Z,47.73
2023-05-02T05:52:10.319Z,47.80
2023-05-02T05:54:38.089Z,47.60
2023-05-02T05:57:05.951Z,47.83
2023-05-02T05:59:36.193Z,47.70
2023-05-02T06:02:06.391Z,47.83
2023-05-02T06:04:34.263Z,47.73
2023-05-02T06:07:02.497Z,47.83
2023-05-02T06:09:30.861Z,47.57
2023-05-02T06:11:58.897Z,47.33
2023-05-02T06:14:26.712Z,47.33
2023-05-02T06:16:54.648Z,47.43
2023-05-02T06:19:23.789Z,47.27
2023-05-02T06:21:51.573Z,47.03
2023-05-02T06:24:19.365Z,47.20
2023-05-02T06:26:47.183Z,47.20
2023-05-02T06:29:14.924Z,46.90
2023-05-02T06:31:42.719Z,46.90
2023-05-02T06:34:10.518Z,46.93
2023-05-02T06:36:39.612Z,46.73
2023-05-02T06:39:07.380Z,46.43
2023-05-02T06:41:35.162Z,46.33
2023-05-02T06:44:03.213Z,46.73
2023-05-02T06:46:31.656Z,46.40
2023-05-02T06:48:59.506Z,46.57
2023-05-02T06:51:27.631Z,46.57
2023-05-02T06:53:56.761Z,46.70
2023-05-02T06:56:25.478Z,46.37
2023-05-02T06:58:53.342Z,46.77
2023-05-02T07:01:21.228Z,46.70
2023-05-02T07:03:49.070Z,46.83
2023-05-02T07:06:17.054Z,46.53
2023-05-02T07:08:44.845Z,46.67
2023-05-02T07:11:14.027Z,46.73
2023-05-02T07:13:41.910Z,46.53
2023-05-02T07:16:09.766Z,46.40
2023-05-02T07:18:37.563Z,46.50
2023-05-02T07:21:05.867Z,46.50
2023-05-02T07:23:33.668Z,46.43
2023-05-02T07:26:01.928Z,46.33
2023-05-02T07:28:31.957Z,46.53
2023-05-02T07:30:59.716Z,46.50
2023-05-02T07:33:27.589Z,46.60
2023-05-02T07:35:57.056Z,46.43
2023-05-02T07:38:24.885Z,46.53
2023-05-02T07:40:52.671Z,46.53
2023-05-02T07:43:20.458Z,46.43
2023-05-02T07:45:49.628Z,46.47
2023-05-02T07:48:17.488Z,46.40
2023-05-02T07:50:45.344Z,46.43
2023-05-02T07:53:13.270Z,46.50
2023-05-02T07:55:41.108Z,46.50
2023-05-02T07:58:08.871Z,46.20
2023-05-02T08:00:36.682Z,46.37
2023-05-02T08:03:06.612Z,46.50
2023-05-02T08:05:34.489Z,46.77
2023-05-02T08:08:02.670Z,46.47
2023-05-02T08:10:30.463Z,46.87
2023-05-02T08:12:58.344Z,46.70
2023-05-02T08:15:26.171Z,46.87
2023-05-02T08:17:54.048Z,46.70
2023-05-02T08:20:23.336Z,46.70
2023-05-02T08:22:51.458Z,46.70
2023-05-02T08:25:19.239Z,46.70
2023-05-02T08:27:47.037Z,46.70
2023-05-02T08:30:15.337Z,46.60
2023-05-02T08:32:43.282Z,46.80
2023-05-02T08:35:11.416Z,46.73
2023-05-02T08:37:40.797Z,46.80
2023-05-02T08:40:13.324Z,46.73
2023-05-02T08:42:44.806Z,46.63
2023-05-02T08:45:16.500Z,46.90
2023-05-02T08:47:45.344Z,47.40
2023-05-02T08:50:13.221Z,47.20
2023-05-02T08:52:44.209Z,47.33
2023-05-02T08:55:13.932Z,47.67
2023-05-02T08:57:44.295Z,47.80
2023-05-02T09:00:13.578Z,47.47
2023-05-02T09:02:52.417Z,47.50
2023-05-02T09:05:24.732Z,47.20
2023-05-02T09:07:53.922Z,47.27
2023-05-02T09:10:22.840Z,47.30
2023-05-02T09:12:50.603Z,47.10
2023-05-02T09:15:20.710Z,47.33
2023-05-02T09:17:49.758Z,47.47
2023-05-02T09:20:18.236Z,47.07
2023-05-02T09:22:50.507Z,47.40
2023-05-02T09:25:21.039Z,47.30
2023-05-02T09:27:54.009Z,47.00
2023-05-02T09:30:23.898Z,47.23
2023-05-02T09:32:54.954Z,47.10
2023-05-02T09:35:24.589Z,47.17
2023-05-02T09:37:53.751Z,47.47
2023-05-02T09:40:24.171Z,47.43
2023-05-02T09:42:52.378Z,47.33
2023-05-02T09:45:24.053Z,47.43
2023-05-02T09:47:52.580Z,47.50
2023-05-02T09:50:39.648Z,47.80
2023-05-02T09:53:08.352Z,47.57
2023-05-02T09:55:37.508Z,47.57
2023-05-02T09:58:06.543Z,47.80
2023-05-02T10:00:42.006Z,47.87
2023-05-02T10:03:10.685Z,47.67
2023-05-02T10:05:39.617Z,47.87
2023-05-02T10:08:08.957Z,47.60
2023-05-02T10:10:39.792Z,47.90
2023-05-02T10:13:08.728Z,47.70
2023-05-02T10:15:45.636Z,47.67
2023-05-02T10:18:15.574Z,47.73
2023-05-02T10:20:49.308Z,47.47
2023-05-02T10:23:17.774Z,47.50
2023-05-02T10:25:47.224Z,47.53
2023-05-02T10:28:16.103Z,47.50
2023-05-02T10:30:44.414Z,47.30
2023-05-02T10:33:15.064Z,47.50
2023-05-02T10:35:46.493Z,47.17
2023-05-02T10:38:19.093Z,48.03
2023-05-02T10:40:56.847Z,48.10
2023-05-02T10:43:26.915Z,48.23
2023-05-02T10:45:55.844Z,47.80
2023-05-02T10:48:25.549Z,48.13
2023-05-02T10:50:54.762Z,48.20
2023-05-02T10:53:27.585Z,47.97
2023-05-02T10:56:17.393Z,47.80
2023-05-02T10:58:46.463Z,47.83
2023-05-02T11:01:39.758Z,47.67
2023-05-02T11:04:09.187Z,47.63
2023-05-02T11:06:38.444Z,47.33
2023-05-02T11:09:36.298Z,47.87
2023-05-02T11:12:07.082Z,47.90
2023-05-02T11:14:53.841Z,47.50
2023-05-02T11:17:22.494Z,47.47
2023-05-02T11:20:30.063Z,47.87
2023-05-02T11:23:26.691Z,47.83
2023-05-02T11:25:56.752Z,47.73
2023-05-02T11:28:48.645Z,47.87
2023-05-02T11:32:02.447Z,47.43
2023-05-02T11:34:40.025Z,47.80
2023-05-02T11:37:13.332Z,47.50
2023-05-02T11:39:41.282Z,47.80
2023-05-02T11:42:09.104Z,47.77
2023-05-02T11:44:59.605Z,47.53
2023-05-02T11:47:29.367Z,47.80
2023-05-02T11:49:57.407Z,47.60
2023-05-02T11:52:25.512Z,47.80
2023-05-02T11:54:56.269Z,47.90
2023-05-02T11:57:24.455Z,48.30
2023-05-02T11:59:53.192Z,48.43
2023-05-02T12:02:36.125Z,48.40
2023-05-02T12:05:05.907Z,48.27
2023-05-02T12:07:38.047Z,48.00
2023-05-02T12:10:07.348Z,48.07
2023-05-02T12:12:35.418Z,48.10
2023-05-02T12:15:05.287Z,48.00
2023-05-02T12:17:38.048Z,47.60
2023-05-02T12:20:07.700Z,47.87
2023-05-02T12:22:35.932Z,48.17
2023-05-02T12:25:05.670Z,48.07
2023-05-02T12:27:35.099Z,47.83
2023-05-02T12:30:03.412Z,47.77
2023-05-02T12:32:34.604Z,47.93
2023-05-02T12:35:04.724Z,48.20
2023-05-02T12:37:32.514Z,48.10
2023-05-02T12:40:00.431Z,48.00
2023-05-02T12:42:28.433Z,47.67
2023-05-02T12:44:56.816Z,47.90
2023-05-02T12:47:25.000Z,47.77
2023-05-02T12:49:56.298Z,47.67
2023-05-02T12:52:47.632Z,47.70
2023-05-02T12:55:18.785Z,48.20
2023-05-02T12:57:47.084Z,48.03
2023-05-02T13:00:18.081Z,47.87
2023-05-02T13:02:45.951Z,47.83
2023-05-02T13:05:19.033Z,47.93
2023-05-02T13:07:47.238Z,48.13
2023-05-02T13:10:17.883Z,47.83
2023-05-02T13:12:47.877Z,48.17
2023-05-02T13:15:16.181Z,48.23
2023-05-02T13:17:44.258Z,48.13
2023-05-02T13:20:13.279Z,48.40
2023-05-02T13:22:42.407Z,48.37
2023-05-02T13:25:10.438Z,48.37
2023-05-02T13:27:38.185Z,48.33
2023-05-02T13:30:09.440Z,47.83
2023-05-02T13:32:37.716Z,48.20
2023-05-02T13:35:06.554Z,47.80
2023-05-02T13:37:34.346Z,47.87
2023-05-02T13:40:04.949Z,48.00
2023-05-02T13:42:32.910Z,48.10
2023-05-02T13:45:02.971Z,47.70
2023-05-02T13:47:30.947Z,47.73
2023-05-02T13:49:58.711Z,47.70
2023-05-02T13:52:26.570Z,47.77
2023-05-02T13:54:54.353Z,47.80
2023-05-02T13:57:23.474Z,47.90
2023-05-02T13:59:51.642Z,48.03
2023-05-02T14:02:19.440Z,48.13
2023-05-02T14:04:47.231Z,47.73
2023-05-02T14:07:15.029Z,48.00
2023-05-02T14:09:42.812Z,48.07
2023-05-02T14:12:10.588Z,48.27
2023-05-02T14:14:39.797Z,48.13
2023-05-02T14:17:07.637Z,48.27
2023-05-02T14:19:35.666Z,48.07
2023-05-02T14:22:03.425Z,48.37
2023-05-02T14:24:31.501Z,48.23
2023-05-02T14:26:59.413Z,48.00
2023-05-02T14:29:27.196Z,48.10
2023-05-02T14:31:56.432Z,48.13
2023-05-02T14:34:26.800Z,48.40
2023-05-02T14:36:54.697Z,48.37
2023-05-02T14:39:22.507Z,48.33
2023-05-02T14:41:50.304Z,48.20
2023-05-02T14:44:18.294Z,48.50
2023-05-02T14:46:46.532Z,47.73
2023-05-02T14:49:15.690Z,47.97
2023-05-02T14:51:47.115Z,48.13
2023-05-02T14:54:16.743Z,48.00
2023-05-02T14:56:44.765Z,47.80
2023-05-02T14:59:12.632Z,48.23
2023-05-02T15:01:40.581Z,48.17
2023-05-02T15:04:08.853Z,48.20
2023-05-02T15:06:38.862Z,48.10
2023-05-02T15:09:07.000Z,48.07
2023-05-02T15:11:34.812Z,48.13
2023-05-02T15:14:02.572Z,47.87
2023-05-02T15:16:30.724Z,48.03
2023-05-02T15:18:58.564Z,48.13
2023-05-02T15:21:26.405Z,48.23
2023-05-02T15:23:55.973Z,48.20
2023-05-02T15:26:24.263Z,48.27
2023-05-02T15:28:52.073Z,48.10
2023-05-02T15:31:19.892Z,48.27
2023-05-02T15:33:47.704Z,47.93
2023-05-02T15:36:15.826Z,48.03
2023-05-02T15:38:43.761Z,48.47
2023-05-02T15:41:12.856Z,48.07
2023-05-02T15:43:40.961Z,48.40
2023-05-02T15:46:08.897Z,48.17
2023-05-02T15:48:36.697Z,48.43
2023-05-02T15:51:05.418Z,48.27
2023-05-02T15:53:34.472Z,48.33
2023-05-02T15:56:02.276Z,48.50
2023-05-02T15:58:31.392Z,48.50
2023-05-02T16:00:59.135Z,48.40
2023-05-02T16:03:27.253Z,48.23
2023-05-02T16:05:55.990Z,48.43
2023-05-02T16:08:23.779Z,48.57
2023-05-02T16:10:51.568Z,48.57
2023-05-02T16:13:19.415Z,48.40
2023-05-02T16:15:48.891Z,48.43
2023-05-02T16:18:16.855Z,48.37
2023-05-02T16:20:45.056Z,48.17
2023-05-02T16:23:12.806Z,48.43
2023-05-02T16:25:40.803Z,48.53
2023-05-02T16:28:08.645Z,48.40
2023-05-02T16:30:37.537Z,48.23
2023-05-02T16:33:06.976Z,48.10
2023-05-02T16:35:34.862Z,48.27
2023-05-02T16:38:03.898Z,48.23
2023-05-02T16:40:32.219Z,48.53
2023-05-02T16:43:00.110Z,48.07
2023-05-02T16:45:27.889Z,48.37
2023-05-02T16:47:57.021Z,47.93
2023-05-02T16:50:27.432Z,48.10
2023-05-02T16:52:55.756Z,48.20
2023-05-02T16:55:23.703Z,48.20
2023-05-02T16:57:52.009Z,47.77
2023-05-02T17:00:20.544Z,47.87
2023-05-02T17:02:48.666Z,47.90
2023-05-02T17:05:16.844Z,47.90
2023-05-02T17:07:46.057Z,48.00
2023-05-02T17:10:14.217Z,48.13
2023-05-02T17:12:42.004Z,48.30
2023-05-02T17:15:10.615Z,48.10
2023-05-02T17:17:38.363Z,47.70
2023-05-02T17:20:07.318Z,48.10
2023-05-02T17:22:35.657Z,48.07
2023-05-02T17:25:06.150Z,48.23
2023-05-02T17:27:34.093Z,47.97
2023-05-02T17:30:02.212Z,47.63
2023-05-02T17:32:30.187Z,47.97
2023-05-02T17:34:58.830Z,48.07
2023-05-02T17:37:27.031Z,47.90
2023-05-02T17:39:55.065Z,48.13
2023-05-02T17:42:24.252Z,47.77
2023-05-02T17:44:53.629Z,47.77
2023-05-02T17:47:22.013Z,48.00
2023-05-02T17:49:51.203Z,47.63
2023-05-02T17:52:19.267Z,47.63
2023-05-02T17:54:47.136Z,47.93
2023-05-02T17:57:15.311Z,47.87
2023-05-02T17:59:44.423Z,47.80
2023-05-02T18:02:12.297Z,47.70
2023-05-02T18:04:42.732Z,47.70
2023-05-02T18:07:12.761Z,47.53
2023-05-02T18:09:43.367Z,47.47
2023-05-02T18:12:11.559Z,47.50
2023-05-02T18:14:39.364Z,47.50
2023-05-02T18:17:10.002Z,47.33
2023-05-02T18:19:37.949Z,47.33
2023-05-02T18:22:05.718Z,47.07
2023-05-02T18:24:33.728Z,47.27
2023-05-02T18:27:01.615Z,47.33
2023-05-02T18:29:29.571Z,47.50
2023-05-02T18:31:57.409Z,47.47
2023-05-02T18:34:32.223Z,47.13
2023-05-02T18:37:01.480Z,47.03
2023-05-02T18:39:31.687Z,47.23
2023-05-02T18:41:59.631Z,47.10
2023-05-02T18:44:27.455Z,47.30
2023-05-02T18:46:56.337Z,47.03
2023-05-02T18:49:24.414Z,47.10
2023-05-02T18:51:54.410Z,47.00
2023-05-02T18:54:23.277Z,47.03
2023-05-02T18:56:51.511Z,47.10
2023-05-02T18:59:19.712Z,47.27
2023-05-02T19:01:48.411Z,47.27
2023-05-02T19:04:16.348Z,47.07
2023-05-02T19:06:44.226Z,47.20
2023-05-02T19:09:13.507Z,47.30
2023-05-02T19:11:41.364Z,47.50
2023-05-02T19:14:09.385Z,47.30
2023-05-02T19:16:40.167Z,47.23
2023-05-02T19:19:10.794Z,47.50
2023-05-02T19:21:38.651Z,47.30
2023-05-02T19:24:06.928Z,47.70
2023-05-02T19:26:36.089Z,47.20
2023-05-02T19:29:03.914Z,47.20
2023-05-02T19:31:32.307Z,47.73
2023-05-02T19:34:00.544Z,47.43
2023-05-02T19:36:28.337Z,47.87
2023-05-02T19:38:57.913Z,47.67
2023-05-02T19:41:25.757Z,47.30
2023-05-02T19:43:55.562Z,47.30
2023-05-02T19:46:23.730Z,47.73
2023-05-02T19:48:51.596Z,47.37
2023-05-02T19:51:25.016Z,47.77
2023-05-02T19:53:53.732Z,47.80
2023-05-02T19:56:25.134Z,47.73
2023-05-02T19:58:54.275Z,47.27
2023-05-02T20:01:22.155Z,47.73
2023-05-02T20:03:50.233Z,47.67
2023-05-02T20:06:18.255Z,47.73
2023-05-02T20:08:46.046Z,47.53
2023-05-02T20:11:13.846Z,47.70
2023-05-02T20:13:41.625Z,47.87
2023-05-02T20:16:11.260Z,47.87
2023-05-02T20:18:39.045Z,47.53
2023-05-02T20:21:06.904Z,47.77
2023-05-02T20:23:34.900Z,47.50
2023-05-02T20:26:03.383Z,47.60
2023-05-02T20:28:31.290Z,47.50
2023-05-02T20:30:59.053Z,47.50
2023-05-02T20:33:41.238Z,47.73
2023-05-02T20:36:13.456Z,47.67
2023-05-02T20:38:42.335Z,47.27
2023-05-02T20:41:12.270Z,47.50
2023-05-02T20:43:40.203Z,47.50
2023-05-02T20:46:11.957Z,47.73
2023-05-02T20:48:41.494Z,47.87
2023-05-02T20:51:09.388Z,47.63
2023-05-02T20:53:37.386Z,47.67
2023-05-02T20:56:05.658Z,47.73
2023-05-02T20:58:33.480Z,47.80
2023-05-02T21:01:01.280Z,47.57
2023-05-02T21:03:29.309Z,47.80
2023-05-02T21:05:59.994Z,47.43
2023-05-02T21:08:27.741Z,47.57
2023-05-02T21:10:56.568Z,47.43
2023-05-02T21:13:24.348Z,47.20
2023-05-02T21:15:52.154Z,47.57
2023-05-02T21:18:21.061Z,47.50
2023-05-02T21:20:49.702Z,47.30
2023-05-02T21:23:18.842Z,47.67
2023-05-02T21:25:46.978Z,47.60
2023-05-02T21:28:14.804Z,47.03
2023-05-02T21:30:42.627Z,47.60
2023-05-02T21:33:10.835Z,47.30
2023-05-02T21:35:38.622Z,47.40
2023-05-02T21:38:06.541Z,47.50
2023-05-02T21:40:37.287Z,47.33
2023-05-02T21:43:05.242Z,47.47
2023-05-02T21:45:33.054Z,47.60
2023-05-02T21:48:01.461Z,47.27
2023-05-02T21:50:29.527Z,47.27
2023-05-02T21:52:57.287Z,47.23
2023-05-02T21:55:25.203Z,47.37
2023-05-02T21:57:54.423Z,47.37
2023-05-02T22:00:22.683Z,47.13
2023-05-02T22:02:50.560Z,47.30
2023-05-02T22:05:18.609Z,47.33
2023-05-02T22:07:48.872Z,47.07
2023-05-02T22:10:17.159Z,47.50
2023-05-02T22:12:45.208Z,47.63
2023-05-02T22:15:14.899Z,47.40
2023-05-02T22:17:43.371Z,47.30
2023-05-02T22:20:12.916Z,47.00
2023-05-02T22:22:41.092Z,47.50
2023-05-02T22:25:09.748Z,47.30
2023-05-02T22:27:37.554Z,47.40
2023-05-02T22:30:06.172Z,47.30
2023-05-02T22:32:35.369Z,47.47
2023-05-02T22:35:04.310Z,46.93
2023-05-02T22:37:32.092Z,47.30
2023-05-02T22:40:00.091Z,47.13
2023-05-02T22:42:28.222Z,47.20
2023-05-02T22:44:55.988Z,47.17
2023-05-02T22:47:25.039Z,47.10
2023-05-02T22:49:54.254Z,47.00
2023-05-02T22:52:22.419Z,46.87
2023-05-02T22:54:50.243Z,46.97
2023-05-02T22:57:18.003Z,46.63
2023-05-02T22:59:45.783Z,47.17
2023-05-02T23:02:13.693Z,46.70
2023-05-02T23:04:41.562Z,46.90
2023-05-02T23:07:10.866Z,47.07
2023-05-02T23:09:38.615Z,47.00
2023-05-02T23:12:07.198Z,46.50
2023-05-02T23:14:35.096Z,46.70
2023-05-02T23:17:03.639Z,46.67
2023-05-02T23:19:31.462Z,46.83
2023-05-02T23:21:59.469Z,46.77
2023-05-02T23:24:28.984Z,46.73
2023-05-02T23:26:57.001Z,46.80
2023-05-02T23:29:24.857Z,46.83
2023-05-02T23:31:54.361Z,46.70
2023-05-02T23:34:23.139Z,46.50
2023-05-02T23:36:53.031Z,46.57
2023-05-02T23:39:20.959Z,47.07
2023-05-02T23:41:50.075Z,46.77
2023-05-02T23:44:17.877Z,46.53
2023-05-02T23:46:45.696Z,46.93
2023-05-02T23:49:13.540Z,46.47
2023-05-02T23:51:41.648Z,46.60
2023-05-02T23:54:09.422Z,46.43
2023-05-02T23:56:37.225Z,46.83
2023-05-02T23:59:06.444Z,46.57
